sensor_id;sensor_type;location;lat;lon;timestamp;temperature;humidity
43151;DHT22;28755;51.478;5.702;2023-02-18T00:01:31;12.00;99.90
43151;DHT22;28755;51.478;5.702;2023-02-18T00:03:58;12.00;99.90
43151;DHT22;28755;51.478;5.702;2023-02-18T00:06:29;12.00;99.90
43151;DHT22;28755;51.478;5.702;2023-02-18T00:08:55;12.10;99.90
43151;DHT22;28755;51.478;5.702;2023-02-18T00:11:23;12.00;99.90
43151;DHT22;28755;51.478;5.702;2023-02-18T00:13:55;12.00;99.90
43151;DHT22;28755;51.478;5.702;2023-02-18T00:16:22;12.00;99.90
43151;DHT22;28755;51.478;5.702;2023-02-18T00:18:48;12.00;99.90
43151;DHT22;28755;51.478;5.702;2023-02-18T00:21:14;12.00;99.90
43151;DHT22;28755;51.478;5.702;2023-02-18T00:23:40;12.00;99.90
43151;DHT22;28755;51.478;5.702;2023-02-18T00:26:09;12.00;99.90
43151;DHT22;28755;51.478;5.702;2023-02-18T00:28:35;12.00;99.90
43151;DHT22;28755;51.478;5.702;2023-02-18T00:31:29;11.90;99.90
43151;DHT22;28755;51.478;5.702;2023-02-18T00:33:56;12.00;99.90
43151;DHT22;28755;51.478;5.702;2023-02-18T00:36:22;12.00;99.90
43151;DHT22;28755;51.478;5.702;2023-02-18T00:38:52;12.00;99.90
43151;DHT22;28755;51.478;5.702;2023-02-18T00:41:19;11.90;99.90
43151;DHT22;28755;51.478;5.702;2023-02-18T00:43:45;12.00;99.90
43151;DHT22;28755;51.478;5.702;2023-02-18T00:46:11;11.90;99.90
43151;DHT22;28755;51.478;5.702;2023-02-18T00:48:37;11.90;99.90
43151;DHT22;28755;51.478;5.702;2023-02-18T00:51:04;11.90;99.90
43151;DHT22;28755;51.478;5.702;2023-02-18T00:53:30;11.90;99.90
43151;DHT22;28755;51.478;5.702;2023-02-18T00:55:56;11.90;99.90
43151;DHT22;28755;51.478;5.702;2023-02-18T00:58:22;11.90;99.90
43151;DHT22;28755;51.478;5.702;2023-02-18T01:00:48;11.90;99.90
43151;DHT22;28755;51.478;5.702;2023-02-18T01:03:14;11.90;99.90
43151;DHT22;28755;51.478;5.702;2023-02-18T01:05:40;11.90;99.90
43151;DHT22;28755;51.478;5.702;2023-02-18T01:08:07;11.90;99.90
43151;DHT22;28755;51.478;5.702;2023-02-18T01:10:34;11.80;99.90
43151;DHT22;28755;51.478;5.702;2023-02-18T01:13:01;11.80;99.90
43151;DHT22;28755;51.478;5.702;2023-02-18T01:15:29;11.80;99.90
43151;DHT22;28755;51.478;5.702;2023-02-18T01:17:54;11.70;99.90
43151;DHT22;28755;51.478;5.702;2023-02-18T01:20:20;11.70;99.90
43151;DHT22;28755;51.478;5.702;2023-02-18T01:22:45;11.70;99.90
43151;DHT22;28755;51.478;5.702;2023-02-18T01:25:11;11.70;99.90
43151;DHT22;28755;51.478;5.702;2023-02-18T01:27:37;11.70;99.90
43151;DHT22;28755;51.478;5.702;2023-02-18T01:30:04;11.70;99.90
43151;DHT22;28755;51.478;5.702;2023-02-18T01:32:30;11.70;99.90
43151;DHT22;28755;51.478;5.702;2023-02-18T01:34:55;11.70;99.90
43151;DHT22;28755;51.478;5.702;2023-02-18T01:37:21;11.70;99.90
43151;DHT22;28755;51.478;5.702;2023-02-18T01:39:47;11.60;99.90
43151;DHT22;28755;51.478;5.702;2023-02-18T01:42:19;11.50;99.90
43151;DHT22;28755;51.478;5.702;2023-02-18T01:44:45;11.60;99.90
43151;DHT22;28755;51.478;5.702;2023-02-18T01:47:12;11.50;99.90
43151;DHT22;28755;51.478;5.702;2023-02-18T01:49:38;11.40;99.90
43151;DHT22;28755;51.478;5.702;2023-02-18T01:52:08;11.50;99.90
43151;DHT22;28755;51.478;5.702;2023-02-18T01:54:39;11.40;99.90
43151;DHT22;28755;51.478;5.702;2023-02-18T01:57:06;11.30;99.90
43151;DHT22;28755;51.478;5.702;2023-02-18T01:59:39;11.30;99.90
43151;DHT22;28755;51.478;5.702;2023-02-18T02:02:10;11.30;99.90
43151;DHT22;28755;51.478;5.702;2023-02-18T02:04:35;11.30;99.90
43151;DHT22;28755;51.478;5.702;2023-02-18T02:07:01;11.30;99.90
43151;DHT22;28755;51.478;5.702;2023-02-18T02:09:28;11.20;99.90
43151;DHT22;28755;51.478;5.702;2023-02-18T02:12:10;11.20;99.90
43151;DHT22;28755;51.478;5.702;2023-02-18T02:15:13;11.20;99.90
43151;DHT22;28755;51.478;5.702;2023-02-18T02:29:51;11.20;99.90
43151;DHT22;28755;51.478;5.702;2023-02-18T02:35:05;11.20;99.90
43151;DHT22;28755;51.478;5.702;2023-02-18T02:38:10;11.10;99.90
43151;DHT22;28755;51.478;5.702;2023-02-18T02:48:35;11.10;99.90
43151;DHT22;28755;51.478;5.702;2023-02-18T02:51:29;11.10;99.90
43151;DHT22;28755;51.478;5.702;2023-02-18T02:54:15;11.10;99.90
43151;DHT22;28755;51.478;5.702;2023-02-18T02:56:41;11.10;99.90
43151;DHT22;28755;51.478;5.702;2023-02-18T02:59:10;11.10;99.90
43151;DHT22;28755;51.478;5.702;2023-02-18T03:02:03;11.10;99.90
43151;DHT22;28755;51.478;5.702;2023-02-18T03:04:46;11.10;99.90
43151;DHT22;28755;51.478;5.702;2023-02-18T03:10:45;11.10;99.90
43151;DHT22;28755;51.478;5.702;2023-02-18T03:13:15;11.10;99.90
43151;DHT22;28755;51.478;5.702;2023-02-18T03:15:53;11.20;99.90
43151;DHT22;28755;51.478;5.702;2023-02-18T03:18:39;11.20;99.90
43151;DHT22;28755;51.478;5.702;2023-02-18T03:21:11;11.10;99.90
43151;DHT22;28755;51.478;5.702;2023-02-18T03:23:48;11.10;99.90
43151;DHT22;28755;51.478;5.702;2023-02-18T03:26:15;11.20;99.90
43151;DHT22;28755;51.478;5.702;2023-02-18T03:28:44;11.10;99.90
43151;DHT22;28755;51.478;5.702;2023-02-18T03:31:13;11.10;99.90
43151;DHT22;28755;51.478;5.702;2023-02-18T03:33:44;11.20;99.90
43151;DHT22;28755;51.478;5.702;2023-02-18T03:36:10;11.10;99.90
43151;DHT22;28755;51.478;5.702;2023-02-18T03:38:52;11.10;99.90
43151;DHT22;28755;51.478;5.702;2023-02-18T03:41:19;11.10;99.90
43151;DHT22;28755;51.478;5.702;2023-02-18T03:43:52;11.10;99.90
43151;DHT22;28755;51.478;5.702;2023-02-18T03:46:19;11.00;99.90
43151;DHT22;28755;51.478;5.702;2023-02-18T03:48:45;11.00;99.90
43151;DHT22;28755;51.478;5.702;2023-02-18T03:51:11;11.00;99.90
43151;DHT22;28755;51.478;5.702;2023-02-18T03:53:36;11.00;99.90
43151;DHT22;28755;51.478;5.702;2023-02-18T03:56:03;11.00;99.90
43151;DHT22;28755;51.478;5.702;2023-02-18T03:58:28;11.00;99.90
43151;DHT22;28755;51.478;5.702;2023-02-18T04:00:54;11.00;99.90
43151;DHT22;28755;51.478;5.702;2023-02-18T04:03:19;11.00;99.90
43151;DHT22;28755;51.478;5.702;2023-02-18T04:05:45;11.00;99.90
43151;DHT22;28755;51.478;5.702;2023-02-18T04:08:12;11.10;99.90
43151;DHT22;28755;51.478;5.702;2023-02-18T04:10:37;11.00;99.90
43151;DHT22;28755;51.478;5.702;2023-02-18T04:13:03;11.00;99.90
43151;DHT22;28755;51.478;5.702;2023-02-18T04:15:29;11.00;99.90
43151;DHT22;28755;51.478;5.702;2023-02-18T04:17:55;11.00;99.90
43151;DHT22;28755;51.478;5.702;2023-02-18T04:20:21;11.00;99.90
43151;DHT22;28755;51.478;5.702;2023-02-18T04:22:47;11.00;99.90
43151;DHT22;28755;51.478;5.702;2023-02-18T04:25:12;10.90;99.90
43151;DHT22;28755;51.478;5.702;2023-02-18T04:27:38;11.00;99.90
43151;DHT22;28755;51.478;5.702;2023-02-18T04:30:04;11.00;99.90
43151;DHT22;28755;51.478;5.702;2023-02-18T04:32:30;11.00;99.90
43151;DHT22;28755;51.478;5.702;2023-02-18T04:34:56;11.00;99.90
43151;DHT22;28755;51.478;5.702;2023-02-18T04:37:21;10.90;99.90
43151;DHT22;28755;51.478;5.702;2023-02-18T04:39:47;10.90;99.90
43151;DHT22;28755;51.478;5.702;2023-02-18T04:42:12;11.00;99.90
43151;DHT22;28755;51.478;5.702;2023-02-18T04:44:38;11.00;99.90
43151;DHT22;28755;51.478;5.702;2023-02-18T04:47:05;11.00;99.90
43151;DHT22;28755;51.478;5.702;2023-02-18T04:49:31;11.00;99.90
43151;DHT22;28755;51.478;5.702;2023-02-18T04:51:56;11.00;99.90
43151;DHT22;28755;51.478;5.702;2023-02-18T04:54:22;11.00;99.90
43151;DHT22;28755;51.478;5.702;2023-02-18T04:56:48;11.00;99.90
43151;DHT22;28755;51.478;5.702;2023-02-18T04:59:13;11.00;99.90
43151;DHT22;28755;51.478;5.702;2023-02-18T05:01:39;11.00;99.90
43151;DHT22;28755;51.478;5.702;2023-02-18T05:04:04;10.90;99.90
43151;DHT22;28755;51.478;5.702;2023-02-18T05:06:30;11.00;99.90
43151;DHT22;28755;51.478;5.702;2023-02-18T05:08:55;11.00;99.90
43151;DHT22;28755;51.478;5.702;2023-02-18T05:11:21;10.90;99.90
43151;DHT22;28755;51.478;5.702;2023-02-18T05:13:46;10.90;99.90
43151;DHT22;28755;51.478;5.702;2023-02-18T05:16:12;10.90;99.90
43151;DHT22;28755;51.478;5.702;2023-02-18T05:18:38;10.90;99.90
43151;DHT22;28755;51.478;5.702;2023-02-18T05:21:04;10.90;99.90
43151;DHT22;28755;51.478;5.702;2023-02-18T05:23:30;10.90;99.90
43151;DHT22;28755;51.478;5.702;2023-02-18T05:25:55;10.90;99.90
43151;DHT22;28755;51.478;5.702;2023-02-18T05:28:21;10.90;99.90
43151;DHT22;28755;51.478;5.702;2023-02-18T05:30:46;10.90;99.90
43151;DHT22;28755;51.478;5.702;2023-02-18T05:33:12;11.00;99.90
43151;DHT22;28755;51.478;5.702;2023-02-18T05:35:38;10.90;99.90
43151;DHT22;28755;51.478;5.702;2023-02-18T05:38:03;10.90;99.90
43151;DHT22;28755;51.478;5.702;2023-02-18T05:40:29;11.00;99.90
43151;DHT22;28755;51.478;5.702;2023-02-18T05:42:55;10.90;99.90
43151;DHT22;28755;51.478;5.702;2023-02-18T05:45:20;10.90;99.90
43151;DHT22;28755;51.478;5.702;2023-02-18T05:47:46;11.00;99.90
43151;DHT22;28755;51.478;5.702;2023-02-18T05:50:11;10.90;99.90
43151;DHT22;28755;51.478;5.702;2023-02-18T05:52:37;10.90;99.90
43151;DHT22;28755;51.478;5.702;2023-02-18T05:55:03;10.90;99.90
43151;DHT22;28755;51.478;5.702;2023-02-18T05:57:29;10.90;99.90
43151;DHT22;28755;51.478;5.702;2023-02-18T05:59:54;11.00;99.90
43151;DHT22;28755;51.478;5.702;2023-02-18T06:02:20;11.00;99.90
43151;DHT22;28755;51.478;5.702;2023-02-18T06:04:45;11.00;99.90
43151;DHT22;28755;51.478;5.702;2023-02-18T06:07:11;11.00;99.90
43151;DHT22;28755;51.478;5.702;2023-02-18T06:09:36;10.90;99.90
43151;DHT22;28755;51.478;5.702;2023-02-18T06:12:02;10.90;99.90
43151;DHT22;28755;51.478;5.702;2023-02-18T06:14:28;10.90;99.90
43151;DHT22;28755;51.478;5.702;2023-02-18T06:16:53;10.90;99.90
43151;DHT22;28755;51.478;5.702;2023-02-18T06:19:19;10.80;99.90
43151;DHT22;28755;51.478;5.702;2023-02-18T06:21:45;10.90;99.90
43151;DHT22;28755;51.478;5.702;2023-02-18T06:24:10;10.80;99.90
43151;DHT22;28755;51.478;5.702;2023-02-18T06:26:36;10.80;99.90
43151;DHT22;28755;51.478;5.702;2023-02-18T06:29:02;10.80;99.90
43151;DHT22;28755;51.478;5.702;2023-02-18T06:31:28;10.80;99.90
43151;DHT22;28755;51.478;5.702;2023-02-18T06:33:53;10.80;99.90
43151;DHT22;28755;51.478;5.702;2023-02-18T06:36:19;10.90;99.90
43151;DHT22;28755;51.478;5.702;2023-02-18T06:38:45;10.80;99.90
43151;DHT22;28755;51.478;5.702;2023-02-18T06:41:12;10.80;99.90
43151;DHT22;28755;51.478;5.702;2023-02-18T06:43:37;10.80;99.90
43151;DHT22;28755;51.478;5.702;2023-02-18T06:46:03;10.80;99.90
43151;DHT22;28755;51.478;5.702;2023-02-18T06:48:29;10.90;99.90
43151;DHT22;28755;51.478;5.702;2023-02-18T06:50:55;10.80;99.90
43151;DHT22;28755;51.478;5.702;2023-02-18T06:53:20;10.80;99.90
43151;DHT22;28755;51.478;5.702;2023-02-18T06:55:46;10.80;99.90
43151;DHT22;28755;51.478;5.702;2023-02-18T06:58:12;10.80;99.90
43151;DHT22;28755;51.478;5.702;2023-02-18T07:00:38;10.90;99.90
43151;DHT22;28755;51.478;5.702;2023-02-18T07:03:04;10.90;99.90
43151;DHT22;28755;51.478;5.702;2023-02-18T07:05:30;10.90;99.90
43151;DHT22;28755;51.478;5.702;2023-02-18T07:07:56;10.80;99.90
43151;DHT22;28755;51.478;5.702;2023-02-18T07:10:22;10.90;99.90
43151;DHT22;28755;51.478;5.702;2023-02-18T07:12:48;10.80;99.90
43151;DHT22;28755;51.478;5.702;2023-02-18T07:15:14;10.70;99.90
43151;DHT22;28755;51.478;5.702;2023-02-18T07:17:40;10.80;99.90
43151;DHT22;28755;51.478;5.702;2023-02-18T07:20:06;10.80;99.90
43151;DHT22;28755;51.478;5.702;2023-02-18T07:22:32;10.70;99.90
43151;DHT22;28755;51.478;5.702;2023-02-18T07:24:57;10.70;99.90
43151;DHT22;28755;51.478;5.702;2023-02-18T07:27:23;10.70;99.90
43151;DHT22;28755;51.478;5.702;2023-02-18T07:29:49;10.70;99.90
43151;DHT22;28755;51.478;5.702;2023-02-18T07:32:17;10.70;99.90
43151;DHT22;28755;51.478;5.702;2023-02-18T07:34:43;10.60;99.90
43151;DHT22;28755;51.478;5.702;2023-02-18T07:37:09;10.70;99.90
43151;DHT22;28755;51.478;5.702;2023-02-18T07:39:39;10.40;99.90
43151;DHT22;28755;51.478;5.702;2023-02-18T07:42:05;10.40;99.90
43151;DHT22;28755;51.478;5.702;2023-02-18T07:44:30;10.40;99.90
43151;DHT22;28755;51.478;5.702;2023-02-18T07:46:56;10.40;99.90
43151;DHT22;28755;51.478;5.702;2023-02-18T07:49:22;10.40;99.90
43151;DHT22;28755;51.478;5.702;2023-02-18T07:51:48;10.40;99.90
43151;DHT22;28755;51.478;5.702;2023-02-18T07:54:14;10.40;99.90
43151;DHT22;28755;51.478;5.702;2023-02-18T07:56:40;10.40;99.90
43151;DHT22;28755;51.478;5.702;2023-02-18T07:59:07;10.40;99.90
43151;DHT22;28755;51.478;5.702;2023-02-18T08:01:33;10.50;99.90
43151;DHT22;28755;51.478;5.702;2023-02-18T08:03:58;10.50;99.90
43151;DHT22;28755;51.478;5.702;2023-02-18T08:06:28;10.50;99.90
43151;DHT22;28755;51.478;5.702;2023-02-18T08:08:55;10.50;99.90
43151;DHT22;28755;51.478;5.702;2023-02-18T08:11:20;10.60;99.90
43151;DHT22;28755;51.478;5.702;2023-02-18T08:13:47;10.60;99.90
43151;DHT22;28755;51.478;5.702;2023-02-18T08:16:13;10.60;99.90
43151;DHT22;28755;51.478;5.702;2023-02-18T08:18:39;10.50;99.90
43151;DHT22;28755;51.478;5.702;2023-02-18T08:21:05;10.60;99.90
43151;DHT22;28755;51.478;5.702;2023-02-18T08:23:30;10.60;99.90
43151;DHT22;28755;51.478;5.702;2023-02-18T08:25:56;10.60;99.90
43151;DHT22;28755;51.478;5.702;2023-02-18T08:28:22;10.50;99.90
43151;DHT22;28755;51.478;5.702;2023-02-18T08:30:50;10.60;99.90
43151;DHT22;28755;51.478;5.702;2023-02-18T08:33:16;10.60;99.90
43151;DHT22;28755;51.478;5.702;2023-02-18T08:35:43;10.60;99.90
43151;DHT22;28755;51.478;5.702;2023-02-18T08:38:08;10.70;99.90
43151;DHT22;28755;51.478;5.702;2023-02-18T08:40:34;10.70;99.90
43151;DHT22;28755;51.478;5.702;2023-02-18T08:42:59;10.70;99.90
43151;DHT22;28755;51.478;5.702;2023-02-18T08:45:25;10.80;99.90
43151;DHT22;28755;51.478;5.702;2023-02-18T08:47:51;10.70;99.90
43151;DHT22;28755;51.478;5.702;2023-02-18T08:50:16;10.90;99.90
43151;DHT22;28755;51.478;5.702;2023-02-18T08:52:43;10.80;99.90
43151;DHT22;28755;51.478;5.702;2023-02-18T08:55:08;10.90;99.90
43151;DHT22;28755;51.478;5.702;2023-02-18T08:57:34;11.00;99.90
43151;DHT22;28755;51.478;5.702;2023-02-18T08:59:59;11.00;99.90
43151;DHT22;28755;51.478;5.702;2023-02-18T09:02:25;10.90;99.90
43151;DHT22;28755;51.478;5.702;2023-02-18T09:04:53;10.90;99.90
43151;DHT22;28755;51.478;5.702;2023-02-18T09:07:19;11.00;99.90
43151;DHT22;28755;51.478;5.702;2023-02-18T09:09:44;11.00;99.90
43151;DHT22;28755;51.478;5.702;2023-02-18T09:12:10;11.00;99.90
43151;DHT22;28755;51.478;5.702;2023-02-18T09:14:35;11.00;99.90
43151;DHT22;28755;51.478;5.702;2023-02-18T09:17:01;11.10;99.90
43151;DHT22;28755;51.478;5.702;2023-02-18T09:19:27;11.10;99.90
43151;DHT22;28755;51.478;5.702;2023-02-18T09:21:52;11.10;99.90
43151;DHT22;28755;51.478;5.702;2023-02-18T09:24:19;11.10;99.90
43151;DHT22;28755;51.478;5.702;2023-02-18T09:26:45;11.10;99.90
43151;DHT22;28755;51.478;5.702;2023-02-18T09:29:11;11.10;99.90
43151;DHT22;28755;51.478;5.702;2023-02-18T09:31:36;11.20;99.90
43151;DHT22;28755;51.478;5.702;2023-02-18T09:34:04;11.20;99.90
43151;DHT22;28755;51.478;5.702;2023-02-18T09:36:29;11.20;99.90
43151;DHT22;28755;51.478;5.702;2023-02-18T09:38:55;11.20;99.90
43151;DHT22;28755;51.478;5.702;2023-02-18T09:41:37;11.00;99.90
43151;DHT22;28755;51.478;5.702;2023-02-18T09:46:41;10.80;99.90
43151;DHT22;28755;51.478;5.702;2023-02-18T09:49:16;10.80;99.90
43151;DHT22;28755;51.478;5.702;2023-02-18T09:51:43;10.80;99.90
43151;DHT22;28755;51.478;5.702;2023-02-18T09:54:16;10.90;99.90
43151;DHT22;28755;51.478;5.702;2023-02-18T09:56:43;10.90;99.90
43151;DHT22;28755;51.478;5.702;2023-02-18T09:59:35;10.90;99.90
43151;DHT22;28755;51.478;5.702;2023-02-18T10:02:21;10.90;99.90
43151;DHT22;28755;51.478;5.702;2023-02-18T10:04:48;11.00;99.90
43151;DHT22;28755;51.478;5.702;2023-02-18T10:07:29;10.90;99.90
43151;DHT22;28755;51.478;5.702;2023-02-18T10:09:57;10.90;99.90
43151;DHT22;28755;51.478;5.702;2023-02-18T10:12:25;11.00;99.90
43151;DHT22;28755;51.478;5.702;2023-02-18T10:14:55;11.00;99.90
43151;DHT22;28755;51.478;5.702;2023-02-18T10:17:24;11.00;99.90
43151;DHT22;28755;51.478;5.702;2023-02-18T10:19:51;11.00;99.90
43151;DHT22;28755;51.478;5.702;2023-02-18T10:22:19;11.00;99.90
43151;DHT22;28755;51.478;5.702;2023-02-18T10:24:49;11.10;99.90
43151;DHT22;28755;51.478;5.702;2023-02-18T10:27:17;11.10;99.90
43151;DHT22;28755;51.478;5.702;2023-02-18T10:29:45;11.10;99.90
43151;DHT22;28755;51.478;5.702;2023-02-18T10:32:26;11.20;99.90
43151;DHT22;28755;51.478;5.702;2023-02-18T10:34:59;11.20;99.90
43151;DHT22;28755;51.478;5.702;2023-02-18T10:37:42;11.20;99.90
43151;DHT22;28755;51.478;5.702;2023-02-18T10:40:22;11.10;99.90
43151;DHT22;28755;51.478;5.702;2023-02-18T10:45:57;11.10;99.90
43151;DHT22;28755;51.478;5.702;2023-02-18T10:51:48;11.00;99.90
43151;DHT22;28755;51.478;5.702;2023-02-18T10:54:14;11.00;99.90
43151;DHT22;28755;51.478;5.702;2023-02-18T10:56:46;11.00;99.90
43151;DHT22;28755;51.478;5.702;2023-02-18T10:59:33;11.00;99.90
43151;DHT22;28755;51.478;5.702;2023-02-18T11:02:04;10.90;99.90
43151;DHT22;28755;51.478;5.702;2023-02-18T11:04:39;10.90;99.90
43151;DHT22;28755;51.478;5.702;2023-02-18T11:07:22;10.80;99.90
43151;DHT22;28755;51.478;5.702;2023-02-18T11:09:52;10.90;99.90
43151;DHT22;28755;51.478;5.702;2023-02-18T11:12:24;10.90;99.90
43151;DHT22;28755;51.478;5.702;2023-02-18T11:17:35;10.80;99.90
43151;DHT22;28755;51.478;5.702;2023-02-18T11:20:25;10.80;99.90
43151;DHT22;28755;51.478;5.702;2023-02-18T11:22:53;10.80;99.90
43151;DHT22;28755;51.478;5.702;2023-02-18T11:25:26;10.80;99.90
43151;DHT22;28755;51.478;5.702;2023-02-18T11:27:57;10.80;99.90
43151;DHT22;28755;51.478;5.702;2023-02-18T11:30:33;10.80;99.90
43151;DHT22;28755;51.478;5.702;2023-02-18T11:33:06;10.80;99.90
43151;DHT22;28755;51.478;5.702;2023-02-18T11:35:33;10.90;99.90
43151;DHT22;28755;51.478;5.702;2023-02-18T11:38:01;10.90;99.90
43151;DHT22;28755;51.478;5.702;2023-02-18T11:40:31;11.00;99.90
43151;DHT22;28755;51.478;5.702;2023-02-18T11:43:10;11.00;99.90
43151;DHT22;28755;51.478;5.702;2023-02-18T11:45:36;11.00;99.90
43151;DHT22;28755;51.478;5.702;2023-02-18T11:48:22;11.00;99.90
43151;DHT22;28755;51.478;5.702;2023-02-18T11:50:52;11.10;99.90
43151;DHT22;28755;51.478;5.702;2023-02-18T11:53:33;11.10;99.90
43151;DHT22;28755;51.478;5.702;2023-02-18T11:56:01;11.10;99.90
43151;DHT22;28755;51.478;5.702;2023-02-18T11:58:35;11.20;99.90
43151;DHT22;28755;51.478;5.702;2023-02-18T12:01:03;11.20;99.90
43151;DHT22;28755;51.478;5.702;2023-02-18T12:04:03;11.10;99.90
43151;DHT22;28755;51.478;5.702;2023-02-18T12:06:36;11.20;99.90
43151;DHT22;28755;51.478;5.702;2023-02-18T12:09:26;11.10;99.90
43151;DHT22;28755;51.478;5.702;2023-02-18T12:12:00;11.10;99.90
43151;DHT22;28755;51.478;5.702;2023-02-18T12:14:27;11.10;99.90
43151;DHT22;28755;51.478;5.702;2023-02-18T12:22:21;11.40;99.90
43151;DHT22;28755;51.478;5.702;2023-02-18T12:39:13;12.10;99.90
43151;DHT22;28755;51.478;5.702;2023-02-18T12:57:45;12.30;99.90
43151;DHT22;28755;51.478;5.702;2023-02-18T13:00:53;12.30;99.90
43151;DHT22;28755;51.478;5.702;2023-02-18T13:08:46;12.20;99.90
43151;DHT22;28755;51.478;5.702;2023-02-18T13:11:28;12.30;99.90
43151;DHT22;28755;51.478;5.702;2023-02-18T13:16:41;12.30;99.90
43151;DHT22;28755;51.478;5.702;2023-02-18T13:19:44;12.30;99.90
43151;DHT22;28755;51.478;5.702;2023-02-18T13:22:13;12.30;99.90
43151;DHT22;28755;51.478;5.702;2023-02-18T13:24:46;12.30;99.90
43151;DHT22;28755;51.478;5.702;2023-02-18T13:27:26;12.30;99.90
43151;DHT22;28755;51.478;5.702;2023-02-18T13:30:18;12.30;99.90
43151;DHT22;28755;51.478;5.702;2023-02-18T13:35:32;12.40;99.90
43151;DHT22;28755;51.478;5.702;2023-02-18T13:40:37;12.50;99.90
43151;DHT22;28755;51.478;5.702;2023-02-18T13:45:42;12.50;99.90
43151;DHT22;28755;51.478;5.702;2023-02-18T13:48:26;12.40;99.90
43151;DHT22;28755;51.478;5.702;2023-02-18T13:50:53;12.30;99.90
43151;DHT22;28755;51.478;5.702;2023-02-18T13:53:21;12.30;99.90
43151;DHT22;28755;51.478;5.702;2023-02-18T13:55:54;12.30;99.90
43151;DHT22;28755;51.478;5.702;2023-02-18T13:58:30;12.30;99.90
43151;DHT22;28755;51.478;5.702;2023-02-18T14:01:44;12.30;99.90
43151;DHT22;28755;51.478;5.702;2023-02-18T14:03:52;12.40;99.90
43151;DHT22;28755;51.478;5.702;2023-02-18T14:09:33;12.40;99.90
43151;DHT22;28755;51.478;5.702;2023-02-18T14:11:57;12.60;99.90
43151;DHT22;28755;51.478;5.702;2023-02-18T14:14:39;12.70;99.90
43151;DHT22;28755;51.478;5.702;2023-02-18T14:17:29;12.70;99.90
43151;DHT22;28755;51.478;5.702;2023-02-18T14:25:30;12.80;99.90
43151;DHT22;28755;51.478;5.702;2023-02-18T14:27:50;12.80;99.90
43151;DHT22;28755;51.478;5.702;2023-02-18T14:30:27;12.70;99.90
43151;DHT22;28755;51.478;5.702;2023-02-18T14:32:59;12.70;99.90
43151;DHT22;28755;51.478;5.702;2023-02-18T14:35:43;12.80;99.90
43151;DHT22;28755;51.478;5.702;2023-02-18T14:41:11;12.80;99.90
43151;DHT22;28755;51.478;5.702;2023-02-18T14:49:57;12.70;99.90
43151;DHT22;28755;51.478;5.702;2023-02-18T14:52:46;12.70;99.90
43151;DHT22;28755;51.478;5.702;2023-02-18T14:55:32;12.70;99.90
43151;DHT22;28755;51.478;5.702;2023-02-18T14:58:04;12.70;99.90
43151;DHT22;28755;51.478;5.702;2023-02-18T15:00:34;12.70;99.90
43151;DHT22;28755;51.478;5.702;2023-02-18T15:03:12;12.70;99.90
43151;DHT22;28755;51.478;5.702;2023-02-18T15:05:38;12.70;99.90
43151;DHT22;28755;51.478;5.702;2023-02-18T15:08:06;12.70;99.90
43151;DHT22;28755;51.478;5.702;2023-02-18T15:13:23;12.70;99.90
43151;DHT22;28755;51.478;5.702;2023-02-18T15:15:54;12.70;99.90
43151;DHT22;28755;51.478;5.702;2023-02-18T15:18:44;12.80;99.90
43151;DHT22;28755;51.478;5.702;2023-02-18T15:21:43;12.70;99.90
43151;DHT22;28755;51.478;5.702;2023-02-18T15:24:29;12.70;99.90
43151;DHT22;28755;51.478;5.702;2023-02-18T15:27:00;12.70;99.90
43151;DHT22;28755;51.478;5.702;2023-02-18T15:29:30;12.60;99.90
43151;DHT22;28755;51.478;5.702;2023-02-18T15:31:56;12.70;99.90
43151;DHT22;28755;51.478;5.702;2023-02-18T15:36:54;12.80;99.90
43151;DHT22;28755;51.478;5.702;2023-02-18T15:39:21;12.70;99.90
43151;DHT22;28755;51.478;5.702;2023-02-18T15:41:52;12.60;99.90
43151;DHT22;28755;51.478;5.702;2023-02-18T15:44:23;12.70;99.90
43151;DHT22;28755;51.478;5.702;2023-02-18T15:46:50;12.60;99.90
43151;DHT22;28755;51.478;5.702;2023-02-18T15:49:20;12.60;99.90
43151;DHT22;28755;51.478;5.702;2023-02-18T15:51:46;12.70;99.90
43151;DHT22;28755;51.478;5.702;2023-02-18T15:54:18;12.70;99.90
43151;DHT22;28755;51.478;5.702;2023-02-18T15:56:49;12.70;99.90
43151;DHT22;28755;51.478;5.702;2023-02-18T15:59:35;12.60;99.90
43151;DHT22;28755;51.478;5.702;2023-02-18T16:04:36;12.70;99.90
43151;DHT22;28755;51.478;5.702;2023-02-18T16:07:22;12.70;99.90
43151;DHT22;28755;51.478;5.702;2023-02-18T16:09:49;12.70;99.90
43151;DHT22;28755;51.478;5.702;2023-02-18T16:12:30;12.60;99.90
43151;DHT22;28755;51.478;5.702;2023-02-18T16:14:56;12.60;99.90
43151;DHT22;28755;51.478;5.702;2023-02-18T16:17:26;12.60;99.90
43151;DHT22;28755;51.478;5.702;2023-02-18T16:25:16;12.60;99.90
43151;DHT22;28755;51.478;5.702;2023-02-18T16:27:51;12.60;99.90
43151;DHT22;28755;51.478;5.702;2023-02-18T16:30:22;12.50;99.90
43151;DHT22;28755;51.478;5.702;2023-02-18T16:32:49;12.50;99.90
43151;DHT22;28755;51.478;5.702;2023-02-18T16:35:14;12.50;99.90
43151;DHT22;28755;51.478;5.702;2023-02-18T16:37:41;12.40;99.90
43151;DHT22;28755;51.478;5.702;2023-02-18T16:42:45;12.30;99.90
43151;DHT22;28755;51.478;5.702;2023-02-18T16:45:12;12.20;99.90
43151;DHT22;28755;51.478;5.702;2023-02-18T16:47:38;12.20;99.90
43151;DHT22;28755;51.478;5.702;2023-02-18T16:50:04;12.10;99.90
43151;DHT22;28755;51.478;5.702;2023-02-18T16:52:30;12.00;99.90
43151;DHT22;28755;51.478;5.702;2023-02-18T16:54:56;12.00;99.90
43151;DHT22;28755;51.478;5.702;2023-02-18T16:57:22;12.00;99.90
43151;DHT22;28755;51.478;5.702;2023-02-18T16:59:48;12.00;99.90
43151;DHT22;28755;51.478;5.702;2023-02-18T17:02:19;12.00;99.90
43151;DHT22;28755;51.478;5.702;2023-02-18T17:04:45;11.90;99.90
43151;DHT22;28755;51.478;5.702;2023-02-18T17:07:11;11.80;99.90
43151;DHT22;28755;51.478;5.702;2023-02-18T17:09:37;11.80;99.90
43151;DHT22;28755;51.478;5.702;2023-02-18T17:12:02;11.80;99.90
43151;DHT22;28755;51.478;5.702;2023-02-18T17:14:29;11.70;99.90
43151;DHT22;28755;51.478;5.702;2023-02-18T17:16:55;11.60;99.90
43151;DHT22;28755;51.478;5.702;2023-02-18T17:19:21;11.70;99.90
43151;DHT22;28755;51.478;5.702;2023-02-18T17:21:47;11.60;99.90
43151;DHT22;28755;51.478;5.702;2023-02-18T17:24:14;11.60;99.90
43151;DHT22;28755;51.478;5.702;2023-02-18T17:26:40;11.60;99.90
43151;DHT22;28755;51.478;5.702;2023-02-18T17:29:05;11.60;99.90
43151;DHT22;28755;51.478;5.702;2023-02-18T17:31:40;11.50;99.90
43151;DHT22;28755;51.478;5.702;2023-02-18T17:34:13;11.50;99.90
43151;DHT22;28755;51.478;5.702;2023-02-18T17:36:39;11.40;99.90
43151;DHT22;28755;51.478;5.702;2023-02-18T17:39:12;11.40;99.90
43151;DHT22;28755;51.478;5.702;2023-02-18T17:41:38;11.30;99.90
43151;DHT22;28755;51.478;5.702;2023-02-18T17:44:16;11.30;99.90
43151;DHT22;28755;51.478;5.702;2023-02-18T17:46:43;11.30;99.90
43151;DHT22;28755;51.478;5.702;2023-02-18T17:49:08;11.30;99.90